createdAt,value
2022-12-17T00:01:04.233Z,2
2022-12-17T00:02:10.516Z,2
2022-12-17T00:03:17.729Z,2.2
2022-12-17T00:04:24.917Z,2.2
2022-12-17T00:05:31.861Z,2.3
2022-12-17T00:06:38.937Z,2.4
2022-12-17T00:07:45.644Z,2.4
2022-12-17T00:08:52.673Z,2.5
2022-12-17T00:09:59.743Z,2.5
2022-12-17T00:11:06.842Z,2.5
2022-12-17T00:13:20.672Z,2.4
2022-12-17T00:14:27.673Z,2.4
2022-12-17T00:15:34.775Z,2.4
2022-12-17T00:16:41.996Z,2.4
2022-12-17T00:17:49.030Z,2.4
2022-12-17T00:18:55.624Z,2.4
2022-12-17T00:20:02.680Z,2.4
2022-12-17T00:21:09.755Z,2.4
2022-12-17T00:22:16.959Z,2.4
2022-12-17T00:23:24.489Z,2.4
2022-12-17T00:24:30.717Z,2.4
2022-12-17T00:25:37.711Z,2.4
2022-12-17T00:26:44.801Z,2.4
2022-12-17T00:27:51.962Z,2.5
2022-12-17T00:28:58.975Z,2.5
2022-12-17T00:30:05.772Z,2.5
2022-12-17T00:31:12.785Z,2.5
2022-12-17T00:32:19.776Z,2.5
2022-12-17T00:33:27.011Z,2.5
2022-12-17T00:34:34.065Z,2.5
2022-12-17T00:35:40.673Z,2.5
2022-12-17T00:36:47.722Z,2.5
2022-12-17T00:37:54.863Z,2.4
2022-12-17T00:39:01.906Z,2.4
2022-12-17T00:40:08.984Z,2.4
2022-12-17T00:41:15.690Z,2.4
2022-12-17T00:42:22.713Z,2.4
2022-12-17T00:43:29.821Z,2.4
2022-12-17T00:44:36.930Z,2.4
2022-12-17T00:45:44.062Z,2.4
2022-12-17T00:46:50.734Z,2.4
2022-12-17T00:47:57.734Z,2.4
2022-12-17T00:49:05.178Z,2.3
2022-12-17T00:50:11.973Z,2.3
2022-12-17T00:51:19.062Z,2.3
2022-12-17T00:52:25.664Z,2.3
2022-12-17T00:53:33.068Z,2.3
2022-12-17T00:54:39.849Z,2.3
2022-12-17T00:55:49.945Z,2.3
2022-12-17T00:56:54.106Z,2.3
2022-12-17T00:58:00.640Z,2.3
2022-12-17T00:59:07.697Z,2.3
2022-12-17T01:00:14.903Z,2.3
2022-12-17T01:01:22.126Z,2.3
2022-12-17T01:02:29.208Z,2.3
2022-12-17T01:03:36.097Z,2.3
2022-12-17T01:04:42.826Z,2.3
2022-12-17T01:05:50.123Z,2.3
2022-12-17T01:06:56.987Z,2.3
2022-12-17T01:08:04.047Z,2.3
2022-12-17T01:09:10.682Z,2.3
2022-12-17T01:10:17.798Z,2.3
2022-12-17T01:11:24.858Z,2.3
2022-12-17T01:12:31.962Z,2.4
2022-12-17T01:13:39.435Z,2.4
2022-12-17T01:17:00.024Z,2.4
2022-12-17T01:18:06.929Z,2.4
2022-12-17T01:19:14.073Z,2.4
2022-12-17T01:20:20.728Z,2.5
2022-12-17T01:21:27.860Z,2.5
2022-12-17T01:22:34.913Z,2.5
2022-12-17T01:23:41.974Z,2.5
2022-12-17T01:24:49.045Z,2.5
2022-12-17T01:25:56.347Z,2.5
2022-12-17T01:27:02.820Z,2.5
2022-12-17T01:28:09.960Z,2.4
2022-12-17T01:29:16.990Z,2.4
2022-12-17T01:30:23.596Z,2.4
2022-12-17T01:31:34.904Z,2.4
2022-12-17T01:32:37.747Z,2.4
2022-12-17T01:33:44.885Z,2.4
2022-12-17T01:34:52.031Z,2.4
2022-12-17T01:35:58.651Z,2.4
2022-12-17T01:37:05.772Z,2.4
2022-12-17T01:38:12.823Z,2.3
2022-12-17T01:39:19.910Z,2.3
2022-12-17T01:40:26.974Z,2.3
2022-12-17T01:41:34.125Z,2.3
2022-12-17T01:42:40.652Z,2.3
2022-12-17T01:43:47.847Z,2.2
2022-12-17T01:44:54.948Z,2.2
2022-12-17T01:46:02.133Z,2.2
2022-12-17T01:47:08.688Z,2.2
2022-12-17T01:48:15.742Z,2.3
2022-12-17T01:49:22.855Z,2.2
2022-12-17T01:50:29.922Z,2.2
2022-12-17T01:51:37.566Z,2.3
2022-12-17T01:52:43.623Z,2.3
2022-12-17T01:53:50.901Z,2.3
2022-12-17T01:54:57.834Z,2.3
2022-12-17T01:56:04.926Z,2.3
2022-12-17T01:57:12.113Z,2.4
2022-12-17T01:58:18.639Z,2.4
2022-12-17T01:59:25.751Z,2.4
2022-12-17T02:00:32.953Z,2.4
2022-12-17T02:01:40.381Z,2.4
2022-12-17T02:02:47.210Z,2.4
2022-12-17T02:03:53.666Z,2.4
2022-12-17T02:05:00.684Z,2.4
2022-12-17T02:06:07.842Z,2.4
2022-12-17T02:07:15.111Z,2.4
2022-12-17T02:08:22.073Z,2.5
2022-12-17T02:09:28.646Z,2.5
2022-12-17T02:10:35.731Z,2.4
2022-12-17T02:11:42.876Z,2.4
2022-12-17T02:12:49.950Z,2.4
2022-12-17T02:13:57.058Z,2.4
2022-12-17T02:15:03.623Z,2.4
2022-12-17T02:16:10.830Z,2.4
2022-12-17T02:17:17.923Z,2.4
2022-12-17T02:18:24.946Z,2.4
2022-12-17T02:20:38.651Z,2.6
2022-12-17T02:21:45.852Z,2.7
2022-12-17T02:22:52.889Z,2.8
2022-12-17T02:23:59.976Z,2.9
2022-12-17T02:25:07.092Z,3
2022-12-17T02:26:13.655Z,3
2022-12-17T02:27:20.790Z,3
2022-12-17T02:28:27.882Z,3
2022-12-17T02:29:35.007Z,3
2022-12-17T02:30:42.028Z,3
2022-12-17T02:31:48.815Z,3
2022-12-17T02:32:55.812Z,2.9
2022-12-17T02:34:02.901Z,2.8
2022-12-17T02:35:09.936Z,2.8
2022-12-17T02:36:17.097Z,2.8
2022-12-17T02:37:23.713Z,2.8
2022-12-17T02:38:30.792Z,2.8
2022-12-17T02:39:37.893Z,2.8
2022-12-17T02:40:45.023Z,2.8
2022-12-17T02:41:52.163Z,2.8
2022-12-17T02:44:05.812Z,2.8
2022-12-17T02:45:12.924Z,2.8
2022-12-17T02:46:20.160Z,2.8
2022-12-17T02:47:27.145Z,2.8
2022-12-17T02:48:33.738Z,2.8
2022-12-17T02:49:40.774Z,2.8
2022-12-17T02:50:47.913Z,2.8
2022-12-17T02:51:55.099Z,2.8
2022-12-17T02:53:02.099Z,2.8
2022-12-17T02:54:08.639Z,2.8
2022-12-17T02:55:15.824Z,2.8
2022-12-17T02:56:22.878Z,2.8
2022-12-17T02:57:30.063Z,2.8
2022-12-17T02:58:37.112Z,2.8
2022-12-17T02:59:43.745Z,2.8
2022-12-17T03:00:50.868Z,2.8
2022-12-17T03:01:58.070Z,2.8
2022-12-17T03:03:05.120Z,2.8
2022-12-17T03:04:12.191Z,2.8
2022-12-17T03:05:43.589Z,2.7
2022-12-17T03:06:25.850Z,2.6
2022-12-17T03:07:32.963Z,2.6
2022-12-17T03:08:39.984Z,2.6
2022-12-17T03:09:47.153Z,2.6
2022-12-17T03:10:53.751Z,2.6
2022-12-17T03:12:00.861Z,2.5
2022-12-17T03:13:07.959Z,2.5
2022-12-17T03:14:15.010Z,2.5
2022-12-17T03:15:22.160Z,2.6
2022-12-17T03:16:34.092Z,2.6
2022-12-17T03:17:35.810Z,2.6
2022-12-17T03:18:42.940Z,2.6
2022-12-17T03:19:50.594Z,2.6
2022-12-17T03:20:57.099Z,2.6
2022-12-17T03:22:03.803Z,2.6
2022-12-17T03:24:17.920Z,2.6
2022-12-17T03:25:25.052Z,2.6
2022-12-17T03:26:32.227Z,2.6
2022-12-17T03:27:38.756Z,2.7
2022-12-17T03:28:45.877Z,2.7
2022-12-17T03:29:52.979Z,2.7
2022-12-17T03:31:00.075Z,2.7
2022-12-17T03:32:07.175Z,2.7
2022-12-17T03:33:13.776Z,2.6
2022-12-17T03:34:20.834Z,2.6
2022-12-17T03:35:27.932Z,2.6
2022-12-17T03:36:35.143Z,2.6
2022-12-17T03:37:41.634Z,2.6
2022-12-17T03:38:48.705Z,2.6
2022-12-17T03:39:55.862Z,2.6
2022-12-17T03:41:03.080Z,2.6
2022-12-17T03:42:10.145Z,2.6
2022-12-17T03:43:17.181Z,2.6
2022-12-17T03:44:23.731Z,2.6
2022-12-17T03:45:30.849Z,2.5
2022-12-17T03:46:37.933Z,2.5
2022-12-17T03:47:45.121Z,2.5
2022-12-17T03:48:51.644Z,2.5
2022-12-17T03:49:58.785Z,2.6
2022-12-17T03:51:05.914Z,2.5
2022-12-17T03:52:13.074Z,2.5
2022-12-17T03:53:20.091Z,2.6
2022-12-17T03:54:26.629Z,2.6
2022-12-17T03:55:33.782Z,2.6
2022-12-17T03:56:40.943Z,2.6
2022-12-17T03:57:47.990Z,2.6
2022-12-17T03:58:55.134Z,2.7
2022-12-17T04:00:01.748Z,2.7
2022-12-17T04:01:08.832Z,2.7
2022-12-17T04:02:16.206Z,2.7
2022-12-17T04:03:23.075Z,2.7
2022-12-17T04:04:30.114Z,2.7
2022-12-17T04:05:37.203Z,2.7
2022-12-17T04:06:43.975Z,2.6
2022-12-17T04:07:50.932Z,2.6
2022-12-17T04:08:57.953Z,2.6
2022-12-17T04:10:05.125Z,2.6
2022-12-17T04:12:18.812Z,2.6
2022-12-17T04:13:25.898Z,2.6
2022-12-17T04:14:33.043Z,2.6
2022-12-17T04:15:40.179Z,2.6
2022-12-17T04:16:46.713Z,2.7
2022-12-17T04:17:53.831Z,2.7
2022-12-17T04:19:00.913Z,2.8
2022-12-17T04:20:08.019Z,2.8
2022-12-17T04:21:15.102Z,2.8
2022-12-17T04:22:21.812Z,2.9
2022-12-17T04:23:28.814Z,2.9
2022-12-17T04:24:35.902Z,2.9
2022-12-17T04:25:43.011Z,2.9
2022-12-17T04:27:57.268Z,3
2022-12-17T04:29:03.805Z,3
2022-12-17T04:30:10.965Z,2.9
2022-12-17T04:31:18.107Z,2.9
2022-12-17T04:32:25.124Z,2.9
2022-12-17T04:33:31.728Z,2.8
2022-12-17T04:34:38.858Z,2.8
2022-12-17T04:35:45.970Z,2.8
2022-12-17T04:36:53.137Z,2.9
2022-12-17T04:38:00.143Z,2.9
2022-12-17T04:39:06.699Z,3
2022-12-17T04:40:13.874Z,3
2022-12-17T04:41:20.975Z,3
2022-12-17T04:42:28.060Z,3.1
2022-12-17T04:43:35.506Z,3.1
2022-12-17T04:44:41.732Z,3.1
2022-12-17T04:45:50.227Z,3.1
2022-12-17T04:46:55.938Z,3.1
2022-12-17T04:48:03.617Z,3.1
2022-12-17T04:49:10.149Z,3
2022-12-17T04:50:16.739Z,3
2022-12-17T04:51:23.875Z,3
2022-12-17T04:52:31.044Z,3
2022-12-17T04:53:38.423Z,2.8
2022-12-17T04:54:45.322Z,2.8
2022-12-17T04:55:51.764Z,2.8
2022-12-17T04:56:58.865Z,2.8
2022-12-17T04:58:05.969Z,2.8
2022-12-17T04:59:13.058Z,2.7
2022-12-17T05:00:20.172Z,2.6
2022-12-17T05:01:26.815Z,2.6
2022-12-17T05:02:38.217Z,2.6
2022-12-17T05:03:41.473Z,2.7
2022-12-17T05:04:48.105Z,2.7
2022-12-17T05:05:55.185Z,2.7
2022-12-17T05:07:01.879Z,2.7
2022-12-17T05:08:08.858Z,2.7
2022-12-17T05:09:15.979Z,2.7
2022-12-17T05:10:23.106Z,2.7
2022-12-17T05:11:30.214Z,2.7
2022-12-17T05:12:36.809Z,2.7
2022-12-17T05:13:43.882Z,2.7
2022-12-17T05:14:50.973Z,2.7
2022-12-17T05:15:58.165Z,2.6
2022-12-17T05:17:05.221Z,2.6
2022-12-17T05:18:11.771Z,2.6
2022-12-17T05:19:18.844Z,2.6
2022-12-17T05:20:26.001Z,2.6
2022-12-17T05:21:33.618Z,2.6
2022-12-17T05:22:40.289Z,2.6
2022-12-17T05:23:46.767Z,2.6
2022-12-17T05:24:53.940Z,2.6
2022-12-17T05:26:00.991Z,2.7
2022-12-17T05:27:08.122Z,2.7
2022-12-17T05:28:15.254Z,2.7
2022-12-17T05:29:21.833Z,2.6
2022-12-17T05:31:36.146Z,2.6
2022-12-17T05:32:43.210Z,2.6
2022-12-17T05:33:49.697Z,2.6
2022-12-17T05:34:57.093Z,2.6
2022-12-17T05:36:03.953Z,2.6
2022-12-17T05:37:11.120Z,2.6
2022-12-17T05:38:18.087Z,2.7
2022-12-17T05:40:31.839Z,2.8
2022-12-17T05:41:38.929Z,2.8
2022-12-17T05:42:46.055Z,2.9
2022-12-17T05:43:53.112Z,2.9
2022-12-17T05:44:59.712Z,3
2022-12-17T05:46:06.879Z,3
2022-12-17T05:47:13.936Z,3
2022-12-17T05:48:21.092Z,3
2022-12-17T05:49:28.664Z,3
2022-12-17T05:50:34.763Z,3
2022-12-17T05:51:41.884Z,3.1
2022-12-17T05:52:48.916Z,3.1
2022-12-17T05:53:56.016Z,3.2
2022-12-17T05:55:03.184Z,3.2
2022-12-17T05:56:09.681Z,3.2
2022-12-17T05:57:17.080Z,3.2
2022-12-17T05:58:24.011Z,3.2
2022-12-17T05:59:31.061Z,3.2
2022-12-17T06:00:38.133Z,3.2
2022-12-17T06:01:44.782Z,3.2
2022-12-17T06:02:51.938Z,3.2
2022-12-17T06:03:59.012Z,3.2
2022-12-17T06:05:06.026Z,3.2
2022-12-17T06:06:13.170Z,3.2
2022-12-17T06:07:19.755Z,3.2
2022-12-17T06:08:26.860Z,3.2
2022-12-17T06:09:33.998Z,3.2
2022-12-17T06:10:41.060Z,3.2
2022-12-17T06:11:48.221Z,3.3
2022-12-17T06:12:54.743Z,3.2
2022-12-17T06:14:01.902Z,3.2
2022-12-17T06:15:08.916Z,3.2
2022-12-17T06:16:16.648Z,3.2
2022-12-17T06:17:23.262Z,3.2
2022-12-17T06:18:29.763Z,3.2
2022-12-17T06:19:36.861Z,3.2
2022-12-17T06:20:43.956Z,3.2
2022-12-17T06:21:51.139Z,3.3
2022-12-17T06:22:58.192Z,3.3
2022-12-17T06:24:04.779Z,3.2
2022-12-17T06:25:11.922Z,3.2
2022-12-17T06:26:18.949Z,3.2
2022-12-17T06:27:26.235Z,3.2
2022-12-17T06:28:33.185Z,3.2
2022-12-17T06:29:39.724Z,3.1
2022-12-17T06:30:46.918Z,3.1
2022-12-17T06:31:54.062Z,3.1
2022-12-17T06:33:01.071Z,3
2022-12-17T06:35:14.832Z,3
2022-12-17T06:36:22.966Z,3
2022-12-17T06:37:29.080Z,3
2022-12-17T06:38:36.094Z,3
2022-12-17T06:39:43.242Z,3
2022-12-17T06:40:49.746Z,3
2022-12-17T06:42:03.810Z,3
2022-12-17T06:43:04.042Z,3.1
2022-12-17T06:44:11.210Z,3.1
2022-12-17T06:45:18.203Z,3.1
2022-12-17T06:46:24.824Z,3.1
2022-12-17T06:47:32.003Z,3.1
2022-12-17T06:48:39.017Z,3.1
2022-12-17T06:49:46.128Z,3.1
2022-12-17T06:50:53.263Z,3.2
2022-12-17T06:51:59.825Z,3.1
2022-12-17T06:53:07.434Z,3.1
2022-12-17T06:54:14.032Z,3.1
2022-12-17T06:55:21.078Z,3.1
2022-12-17T06:56:28.230Z,3.1
2022-12-17T06:57:39.161Z,3
2022-12-17T06:58:41.911Z,3.1
2022-12-17T06:59:48.975Z,3
2022-12-17T07:00:56.201Z,3
2022-12-17T07:02:03.410Z,3
2022-12-17T07:03:14.573Z,3
2022-12-17T07:04:16.914Z,3
2022-12-17T07:05:24.042Z,3.1
2022-12-17T07:06:31.156Z,3.1
2022-12-17T07:08:44.945Z,3
2022-12-17T07:09:51.891Z,3
2022-12-17T07:10:59.031Z,3
2022-12-17T07:12:06.150Z,3
2022-12-17T07:13:13.235Z,3
2022-12-17T07:14:19.822Z,3
2022-12-17T07:15:26.900Z,3
2022-12-17T07:16:34.170Z,3
2022-12-17T07:17:41.253Z,3
2022-12-17T07:18:47.766Z,3
2022-12-17T07:19:54.828Z,3
2022-12-17T07:21:02.038Z,3.2
2022-12-17T07:22:09.128Z,3.2
2022-12-17T07:23:16.164Z,3.3
2022-12-17T07:24:22.742Z,3.4
2022-12-17T07:25:29.828Z,3.4
2022-12-17T07:26:36.952Z,3.4
2022-12-17T07:27:44.084Z,3.4
2022-12-17T07:28:51.199Z,3.4
2022-12-17T07:29:57.707Z,3.4
2022-12-17T07:31:04.903Z,3.4
2022-12-17T07:32:12.065Z,3.4
2022-12-17T07:33:19.052Z,3.4
2022-12-17T07:34:26.217Z,3.4
2022-12-17T07:35:33.285Z,3.4
2022-12-17T07:36:39.819Z,3.4
2022-12-17T07:38:54.175Z,3.4
2022-12-17T07:40:01.160Z,3.4
2022-12-17T07:41:07.763Z,3.4
2022-12-17T07:42:14.913Z,3.4
2022-12-17T07:43:22.012Z,3.4
2022-12-17T07:44:29.620Z,3.4
2022-12-17T07:45:36.282Z,3.4
2022-12-17T07:46:42.877Z,3.4
2022-12-17T07:47:49.897Z,3.5
2022-12-17T07:48:57.004Z,3.6
2022-12-17T07:50:04.087Z,3.6
2022-12-17T07:51:11.211Z,3.6
2022-12-17T07:52:17.840Z,3.6
2022-12-17T07:53:24.887Z,3.6
2022-12-17T07:54:32.010Z,3.6
2022-12-17T07:55:39.090Z,3.6
2022-12-17T07:56:46.752Z,3.6
2022-12-17T07:57:52.975Z,3.6
2022-12-17T07:58:59.899Z,3.6
2022-12-17T08:00:06.999Z,3.6
2022-12-17T08:01:14.325Z,3.6
2022-12-17T08:02:21.476Z,3.6
2022-12-17T08:03:27.965Z,3.6
2022-12-17T08:04:35.022Z,3.6
2022-12-17T08:05:42.123Z,3.7
2022-12-17T08:06:49.101Z,3.6
2022-12-17T08:07:56.243Z,3.6
2022-12-17T08:09:02.844Z,3.6
2022-12-17T08:10:09.858Z,3.6
2022-12-17T08:11:16.979Z,3.6
2022-12-17T08:12:24.085Z,3.6
2022-12-17T08:13:31.294Z,3.6
2022-12-17T08:14:37.826Z,3.6
2022-12-17T08:15:44.942Z,3.7
2022-12-17T08:16:52.165Z,3.7
2022-12-17T08:17:59.153Z,3.8
2022-12-17T08:19:06.251Z,3.8
2022-12-17T08:20:12.840Z,3.8
2022-12-17T08:21:19.913Z,3.8
2022-12-17T08:22:27.090Z,3.9
2022-12-17T08:23:34.532Z,3.9
2022-12-17T08:24:41.238Z,4
2022-12-17T08:25:50.183Z,4
2022-12-17T08:26:54.974Z,4.1
2022-12-17T08:28:04.591Z,4.1
2022-12-17T08:29:09.199Z,4.1
2022-12-17T08:30:16.233Z,4.1
2022-12-17T08:31:22.946Z,4.1
2022-12-17T08:32:29.373Z,4.1
2022-12-17T08:33:37.527Z,4
2022-12-17T08:34:44.313Z,4
2022-12-17T08:36:57.833Z,3.9
2022-12-17T08:38:04.911Z,3.8
2022-12-17T08:39:12.131Z,3.8
2022-12-17T08:40:19.152Z,3.8
2022-12-17T08:42:32.839Z,3.7
2022-12-17T08:43:40.203Z,3.6
2022-12-17T08:44:47.130Z,3.6
2022-12-17T08:45:54.251Z,3.6
2022-12-17T08:47:01.276Z,3.5
2022-12-17T08:48:07.888Z,3.5
2022-12-17T08:49:15.038Z,3.4
2022-12-17T08:50:22.213Z,3.5
2022-12-17T08:51:29.173Z,3.5
2022-12-17T08:52:35.771Z,3.6
2022-12-17T08:53:43.207Z,3.6
2022-12-17T08:54:49.965Z,3.6
2022-12-17T08:55:57.200Z,3.6
2022-12-17T08:57:04.221Z,3.7
2022-12-17T08:58:10.791Z,3.8
2022-12-17T08:59:17.878Z,3.9
2022-12-17T09:00:25.464Z,3.9
2022-12-17T09:01:32.215Z,4
2022-12-17T09:02:39.333Z,4
2022-12-17T09:03:45.868Z,4.1
2022-12-17T09:04:52.871Z,4.1
2022-12-17T09:05:59.967Z,4.2
2022-12-17T09:07:07.078Z,4.2
2022-12-17T09:08:14.245Z,4.2
2022-12-17T09:09:21.348Z,4.2
2022-12-17T09:10:27.840Z,4.3
2022-12-17T09:11:35.024Z,4.3
2022-12-17T09:12:42.731Z,4.3
2022-12-17T09:13:49.192Z,4.3
2022-12-17T09:14:56.288Z,4.3
2022-12-17T09:16:02.892Z,4.3
2022-12-17T09:17:10.140Z,4.3
2022-12-17T09:18:17.115Z,4.3
2022-12-17T09:19:24.202Z,4.3
2022-12-17T09:20:31.308Z,4.4
2022-12-17T09:21:37.859Z,4.4
2022-12-17T09:22:45.046Z,4.4
2022-12-17T09:23:52.099Z,4.4
2022-12-17T09:24:59.230Z,4.5
2022-12-17T09:26:06.323Z,4.5
2022-12-17T09:27:12.932Z,4.5
2022-12-17T09:28:20.011Z,4.5
2022-12-17T09:29:27.119Z,4.5
2022-12-17T09:30:34.272Z,4.5
2022-12-17T09:31:41.373Z,4.5
2022-12-17T09:32:47.968Z,4.5
2022-12-17T09:33:55.173Z,4.5
2022-12-17T09:35:02.144Z,4.5
2022-12-17T09:36:09.234Z,4.5
2022-12-17T09:37:16.029Z,4.4
2022-12-17T09:38:22.948Z,4.3
2022-12-17T09:39:30.052Z,4.3
2022-12-17T09:40:37.111Z,4.3
2022-12-17T09:41:44.284Z,4.4
2022-12-17T09:42:54.460Z,4.3
2022-12-17T09:43:57.914Z,4.3
2022-12-17T09:46:12.215Z,4.3
2022-12-17T09:47:19.232Z,4.3
2022-12-17T09:48:32.077Z,4.3
2022-12-17T09:49:32.964Z,4.3
2022-12-17T09:50:40.064Z,4.3
2022-12-17T09:51:47.155Z,4.4
2022-12-17T09:52:54.301Z,4.4
2022-12-17T09:54:00.916Z,4.4
2022-12-17T09:55:07.422Z,4.4
2022-12-17T09:55:07.941Z,4.4
2022-12-17T09:56:15.089Z,4.4
2022-12-17T09:57:22.201Z,4.4
2022-12-17T09:58:29.281Z,4.3
2022-12-17T09:59:35.954Z,4.3
2022-12-17T10:00:43.000Z,4.3
2022-12-17T10:01:50.177Z,4.3
2022-12-17T10:02:57.369Z,4.3
2022-12-17T10:05:10.931Z,4.3
2022-12-17T10:06:22.402Z,4.3
2022-12-17T10:07:25.106Z,4.3
2022-12-17T10:08:32.213Z,4.3
2022-12-17T10:09:39.244Z,4.3
2022-12-17T10:10:45.917Z,4.4
2022-12-17T10:11:52.984Z,4.3
2022-12-17T10:13:00.089Z,4.4
2022-12-17T10:14:07.172Z,4.4
2022-12-17T10:15:14.320Z,4.5
2022-12-17T10:16:21.011Z,4.5
2022-12-17T10:17:27.982Z,4.5
2022-12-17T10:18:35.112Z,4.5
2022-12-17T10:19:42.233Z,4.5
2022-12-17T10:20:49.255Z,4.5
2022-12-17T10:21:56.008Z,4.5
2022-12-17T10:23:02.980Z,4.5
2022-12-17T10:24:14.066Z,4.5
2022-12-17T10:25:17.231Z,4.6
2022-12-17T10:26:24.300Z,4.6
2022-12-17T10:27:30.897Z,4.6
2022-12-17T10:28:37.947Z,4.6
2022-12-17T10:29:48.245Z,4.6
2022-12-17T10:30:52.245Z,4.6
2022-12-17T10:31:58.742Z,4.6
2022-12-17T10:33:05.890Z,4.6
2022-12-17T10:34:13.020Z,4.6
2022-12-17T10:35:20.111Z,4.6
2022-12-17T10:36:27.231Z,4.7
2022-12-17T10:37:34.393Z,4.6
2022-12-17T10:38:40.896Z,4.6
2022-12-17T10:39:48.004Z,4.6
2022-12-17T10:40:55.129Z,4.6
2022-12-17T10:42:02.259Z,4.6
2022-12-17T10:43:08.843Z,4.6
2022-12-17T10:44:15.942Z,4.6
2022-12-17T10:45:23.046Z,4.7
2022-12-17T10:46:30.108Z,4.7
2022-12-17T10:47:37.288Z,4.7
2022-12-17T10:49:50.879Z,4.7
2022-12-17T10:50:58.022Z,4.7
2022-12-17T10:52:05.212Z,4.7
2022-12-17T10:53:12.269Z,4.7
2022-12-17T10:54:18.851Z,4.7
2022-12-17T10:55:25.963Z,4.7
2022-12-17T10:56:33.043Z,4.7
2022-12-17T10:57:40.146Z,4.8
2022-12-17T10:58:47.233Z,4.7
2022-12-17T10:59:54.352Z,4.7
2022-12-17T11:01:01.009Z,4.7
2022-12-17T11:02:08.197Z,4.7
2022-12-17T11:03:15.254Z,4.7
2022-12-17T11:04:22.264Z,4.7
2022-12-17T11:05:28.817Z,4.7
2022-12-17T11:06:40.484Z,4.7
2022-12-17T11:07:43.621Z,4.7
2022-12-17T11:08:50.159Z,4.7
2022-12-17T11:09:57.230Z,4.7
2022-12-17T11:11:04.400Z,4.7
2022-12-17T11:12:11.002Z,4.7
2022-12-17T11:13:18.015Z,4.6
2022-12-17T11:14:25.194Z,4.6
2022-12-17T11:15:32.442Z,4.6
2022-12-17T11:16:38.836Z,4.6
2022-12-17T11:17:46.079Z,4.6
2022-12-17T11:18:53.093Z,4.7
2022-12-17T11:20:00.152Z,4.7
2022-12-17T11:21:07.251Z,4.7
2022-12-17T11:22:13.898Z,4.7
2022-12-17T11:23:20.992Z,4.8
2022-12-17T11:24:28.105Z,4.7
2022-12-17T11:25:35.193Z,4.7
2022-12-17T11:26:42.320Z,4.8
2022-12-17T11:27:48.915Z,4.7
2022-12-17T11:28:56.017Z,4.7
2022-12-17T11:30:03.091Z,4.8
2022-12-17T11:31:10.232Z,4.8
2022-12-17T11:32:17.295Z,4.8
2022-12-17T11:33:23.905Z,4.7
2022-12-17T11:34:30.961Z,4.7
2022-12-17T11:35:38.035Z,4.8
2022-12-17T11:36:45.193Z,4.7
2022-12-17T11:37:52.308Z,4.7
2022-12-17T11:38:58.832Z,4.8
2022-12-17T11:40:06.019Z,4.8
2022-12-17T11:41:13.113Z,4.7
2022-12-17T11:42:20.229Z,4.7
2022-12-17T11:43:27.272Z,4.7
2022-12-17T11:44:33.875Z,4.7
2022-12-17T11:45:40.990Z,4.7
2022-12-17T11:46:48.302Z,4.7
2022-12-17T11:47:59.219Z,4.7
2022-12-17T11:49:01.868Z,4.8
2022-12-17T11:50:08.844Z,4.7
2022-12-17T11:51:15.992Z,4.7
2022-12-17T11:53:30.303Z,4.7
2022-12-17T11:54:37.287Z,4.7
2022-12-17T11:55:43.931Z,4.6
2022-12-17T11:56:51.056Z,4.6
2022-12-17T11:57:58.146Z,4.6
2022-12-17T11:59:04.733Z,4.6
2022-12-17T12:00:12.404Z,4.6
2022-12-17T12:01:18.944Z,4.6
2022-12-17T12:02:26.162Z,4.5
2022-12-17T12:03:33.266Z,4.6
2022-12-17T12:04:40.235Z,4.6
2022-12-17T12:05:49.769Z,4.6
2022-12-17T12:06:53.926Z,4.6
2022-12-17T12:08:01.024Z,4.5
2022-12-17T12:09:08.112Z,4.5
2022-12-17T12:10:15.251Z,4.5
2022-12-17T12:11:26.883Z,4.5
2022-12-17T12:12:28.937Z,4.5
2022-12-17T12:13:36.047Z,4.5
2022-12-17T12:14:43.133Z,4.5
2022-12-17T12:15:50.295Z,4.4
2022-12-17T12:16:56.883Z,4.4
2022-12-17T12:18:03.955Z,4.4
2022-12-17T12:19:11.039Z,4.4
2022-12-17T12:20:18.094Z,4.4
2022-12-17T12:21:25.270Z,4.3
2022-12-17T12:22:32.420Z,4.3
2022-12-17T12:23:38.911Z,4.4
2022-12-17T12:24:46.089Z,4.3
2022-12-17T12:25:53.165Z,4.3
2022-12-17T12:27:00.294Z,4.3
2022-12-17T12:28:06.840Z,4.3
2022-12-17T12:29:13.988Z,4.3
2022-12-17T12:30:21.047Z,4.3
2022-12-17T12:31:28.269Z,4.3
2022-12-17T12:32:35.323Z,4.3
2022-12-17T12:33:41.883Z,4.3
2022-12-17T12:34:48.957Z,4.3
2022-12-17T12:35:56.084Z,4.3
2022-12-17T12:37:03.223Z,4.3
2022-12-17T12:38:10.344Z,4.3
2022-12-17T12:39:16.830Z,4.3
2022-12-17T12:40:24.004Z,4.3
2022-12-17T12:41:31.051Z,4.3
2022-12-17T12:42:38.212Z,4.3
2022-12-17T12:43:45.271Z,4.3
2022-12-17T12:44:52.392Z,4.3
2022-12-17T12:45:59.039Z,4.3
2022-12-17T12:47:06.109Z,4.3
2022-12-17T12:48:13.534Z,4.4
2022-12-17T12:49:20.307Z,4.3
2022-12-17T12:50:26.823Z,4.3
2022-12-17T12:51:34.473Z,4.3
2022-12-17T12:52:41.128Z,4.3
2022-12-17T12:53:48.214Z,4.4
2022-12-17T12:54:55.283Z,4.3
2022-12-17T12:57:08.985Z,4.3
2022-12-17T12:58:16.203Z,4.2
2022-12-17T12:59:23.193Z,4.2
2022-12-17T13:00:30.321Z,4.1
2022-12-17T13:01:37.065Z,4.1
2022-12-17T13:02:44.208Z,4.1
2022-12-17T13:03:51.152Z,4.1
2022-12-17T13:04:58.180Z,4.1
2022-12-17T13:06:05.351Z,4.1
2022-12-17T13:07:11.900Z,4.1
2022-12-17T13:08:18.990Z,4.1
2022-12-17T13:09:32.248Z,4.2
2022-12-17T13:10:33.244Z,4.1
2022-12-17T13:11:40.325Z,4.1
2022-12-17T13:12:46.993Z,4.1
2022-12-17T13:13:54.165Z,4.1
2022-12-17T13:15:01.631Z,4.1
2022-12-17T13:16:08.294Z,4.2
2022-12-17T13:17:15.373Z,4.2
2022-12-17T13:18:21.962Z,4.3
2022-12-17T13:19:29.031Z,4.3
2022-12-17T13:20:36.162Z,4.3
2022-12-17T13:21:43.204Z,4.3
2022-12-17T13:22:50.308Z,4.3
2022-12-17T13:23:56.935Z,4.3
2022-12-17T13:25:04.017Z,4.3
2022-12-17T13:26:11.129Z,4.3
2022-12-17T13:27:18.285Z,4.3
2022-12-17T13:28:25.927Z,4.3
2022-12-17T13:29:32.008Z,4.3
2022-12-17T13:30:39.026Z,4.3
2022-12-17T13:31:46.171Z,4.3
2022-12-17T13:32:53.352Z,4.3
2022-12-17T13:34:00.379Z,4.3
2022-12-17T13:35:10.304Z,4.3
2022-12-17T13:36:14.063Z,4.3
2022-12-17T13:38:28.262Z,4.3
2022-12-17T13:39:34.877Z,4.3
2022-12-17T13:40:41.985Z,4.3
2022-12-17T13:41:49.053Z,4.2
2022-12-17T13:42:56.222Z,4.2
2022-12-17T13:44:03.245Z,4.1
2022-12-17T13:45:09.827Z,4.1
2022-12-17T13:46:16.987Z,4.1
2022-12-17T13:47:24.080Z,4.1
2022-12-17T13:48:31.133Z,4
2022-12-17T13:49:38.250Z,4
2022-12-17T13:50:44.937Z,4
2022-12-17T13:51:51.980Z,4
2022-12-17T13:52:59.120Z,4
2022-12-17T13:54:06.145Z,3.9
2022-12-17T13:55:13.323Z,4
2022-12-17T13:56:20.405Z,4
2022-12-17T13:57:27.027Z,4.1
2022-12-17T13:58:34.452Z,4
2022-12-17T14:00:48.291Z,4
2022-12-17T14:01:55.013Z,4
2022-12-17T14:03:02.020Z,3.9
2022-12-17T14:04:09.178Z,3.9
2022-12-17T14:05:16.191Z,3.9
2022-12-17T14:06:23.268Z,3.9
2022-12-17T14:07:29.953Z,3.9
2022-12-17T14:08:37.246Z,3.9
2022-12-17T14:09:44.066Z,3.9
2022-12-17T14:10:51.167Z,3.9
2022-12-17T14:11:58.246Z,3.9
2022-12-17T14:13:04.919Z,3.9
2022-12-17T14:14:11.967Z,3.9
2022-12-17T14:15:19.093Z,3.9
2022-12-17T14:16:26.191Z,3.9
2022-12-17T14:17:33.387Z,3.9
2022-12-17T14:18:40.447Z,3.9
2022-12-17T14:19:47.001Z,3.9
2022-12-17T14:20:54.114Z,3.9
2022-12-17T14:22:01.174Z,3.9
2022-12-17T14:23:08.317Z,3.9
2022-12-17T14:24:14.924Z,3.9
2022-12-17T14:25:22.017Z,4
2022-12-17T14:26:29.092Z,4
2022-12-17T14:27:36.216Z,4
2022-12-17T14:28:48.719Z,4
2022-12-17T14:29:49.906Z,3.9
2022-12-17T14:31:25.684Z,3.9
2022-12-17T14:32:04.357Z,3.9
2022-12-17T14:33:11.304Z,3.9
2022-12-17T14:34:18.273Z,3.9
2022-12-17T14:35:24.932Z,3.9
2022-12-17T14:36:32.044Z,3.9
2022-12-17T14:37:39.186Z,3.9
2022-12-17T14:38:48.573Z,3.9
2022-12-17T14:39:53.316Z,3.9
2022-12-17T14:40:59.921Z,3.9
2022-12-17T14:42:07.034Z,3.9
2022-12-17T14:43:14.154Z,3.9
2022-12-17T14:44:21.538Z,3.9
2022-12-17T14:45:28.297Z,3.9
2022-12-17T14:46:34.921Z,3.9
2022-12-17T14:47:42.111Z,3.9
2022-12-17T14:48:49.102Z,3.9
2022-12-17T14:49:56.407Z,3.9
2022-12-17T14:51:02.872Z,3.8
2022-12-17T14:52:09.887Z,3.8
2022-12-17T14:53:17.111Z,3.8
2022-12-17T14:54:24.239Z,3.8
2022-12-17T14:55:31.419Z,3.9
2022-12-17T14:56:38.359Z,3.9
2022-12-17T14:57:44.977Z,3.9
2022-12-17T14:58:52.023Z,3.9
2022-12-17T14:59:59.109Z,3.9
2022-12-17T15:01:06.302Z,3.9
2022-12-17T15:02:13.044Z,3.9
2022-12-17T15:03:20.080Z,3.9
2022-12-17T15:04:27.066Z,3.9
2022-12-17T15:06:41.287Z,3.9
2022-12-17T15:07:48.364Z,3.9
2022-12-17T15:08:54.972Z,3.9
2022-12-17T15:10:02.133Z,3.9
2022-12-17T15:11:09.142Z,3.9
2022-12-17T15:12:16.245Z,3.9
2022-12-17T15:13:22.941Z,3.9
2022-12-17T15:14:29.976Z,3.9
2022-12-17T15:15:37.102Z,3.9
2022-12-17T15:16:44.263Z,3.9
2022-12-17T15:17:51.322Z,3.9
2022-12-17T15:18:57.881Z,3.9
2022-12-17T15:20:04.953Z,3.9
2022-12-17T15:21:12.090Z,3.9
2022-12-17T15:23:26.309Z,3.9
2022-12-17T15:24:32.890Z,3.9
2022-12-17T15:25:45.566Z,3.9
2022-12-17T15:26:47.061Z,3.9
2022-12-17T15:27:54.234Z,3.9
2022-12-17T15:29:01.304Z,3.9
2022-12-17T15:30:07.897Z,3.9
2022-12-17T15:31:15.100Z,3.9
2022-12-17T15:32:22.071Z,3.9
2022-12-17T15:33:29.142Z,3.9
2022-12-17T15:34:36.282Z,3.9
2022-12-17T15:35:42.912Z,4
2022-12-17T15:36:49.995Z,3.9
2022-12-17T15:37:57.132Z,4
2022-12-17T15:39:04.200Z,3.9
2022-12-17T15:40:11.308Z,3.9
2022-12-17T15:41:17.894Z,3.9
2022-12-17T15:42:25.083Z,3.9
2022-12-17T15:43:32.096Z,3.9
2022-12-17T15:44:39.178Z,3.9
2022-12-17T15:45:46.425Z,3.9
2022-12-17T15:46:52.932Z,3.9
2022-12-17T15:47:59.962Z,3.9
2022-12-17T15:49:07.107Z,3.9
2022-12-17T15:50:14.190Z,3.9
2022-12-17T15:51:21.377Z,3.9
2022-12-17T15:52:27.995Z,3.9
2022-12-17T15:53:35.381Z,3.8